createdAt,value
2018-05-02T00:00:45.300Z,92.37
2018-05-02T00:01:45.283Z,92.08
2018-05-02T00:02:45.273Z,91.80
2018-05-02T00:03:45.245Z,92.37
2018-05-02T00:04:45.226Z,92.08
2018-05-02T00:05:45.208Z,92.85
2018-05-02T00:06:45.189Z,92.37
2018-05-02T00:07:45.167Z,91.99
2018-05-02T00:08:45.148Z,92.18
2018-05-02T00:09:45.138Z,92.27
2018-05-02T00:10:45.112Z,92.18
2018-05-02T00:11:45.093Z,92.08
2018-05-02T00:12:45.077Z,92.08
2018-05-02T00:13:45.065Z,92.37
2018-05-02T00:14:45.053Z,92.18
2018-05-02T00:15:45.018Z,92.18
2018-05-02T00:16:45.011Z,92.08
2018-05-02T00:17:44.985Z,92.37
2018-05-02T00:18:44.965Z,92.18
2018-05-02T00:19:44.942Z,92.27
2018-05-02T00:20:44.928Z,92.08
2018-05-02T00:21:44.908Z,91.99
2018-05-02T00:22:44.891Z,92.27
2018-05-02T00:23:44.880Z,92.18
2018-05-02T00:24:44.851Z,92.46
2018-05-02T00:25:44.830Z,92.08
2018-05-02T00:26:44.805Z,92.27
2018-05-02T00:27:44.789Z,92.27
2018-05-02T00:28:44.774Z,91.89
2018-05-02T00:29:44.750Z,92.27
2018-05-02T00:30:44.732Z,91.89
2018-05-02T00:31:44.710Z,92.37
2018-05-02T00:32:44.692Z,92.66
2018-05-02T00:33:44.674Z,92.85
2018-05-02T00:34:44.654Z,92.66
2018-05-02T00:35:44.639Z,93.23
2018-05-02T00:36:44.619Z,92.94
2018-05-02T00:37:44.596Z,93.04
2018-05-02T00:38:44.580Z,92.46
2018-05-02T00:39:44.557Z,91.80
2018-05-02T00:40:44.538Z,92.18
2018-05-02T00:41:44.519Z,92.56
2018-05-02T00:42:44.499Z,92.85
2018-05-02T00:43:44.488Z,93.13
2018-05-02T00:44:44.461Z,93.41
2018-05-02T00:45:44.443Z,92.94
2018-05-02T00:46:44.423Z,92.66
2018-05-02T00:47:44.408Z,92.85
2018-05-02T00:48:44.386Z,92.85
2018-05-02T00:49:44.368Z,93.04
2018-05-02T00:50:44.349Z,93.04
2018-05-02T00:51:44.325Z,93.13
2018-05-02T00:52:44.304Z,93.13
2018-05-02T00:53:44.288Z,93.04
2018-05-02T00:54:44.278Z,92.94
2018-05-02T00:55:44.248Z,92.56
2018-05-02T00:56:44.229Z,92.94
2018-05-02T00:57:44.209Z,93.04
2018-05-02T00:58:44.194Z,92.85
2018-05-02T00:59:44.189Z,92.66
2018-05-02T01:00:44.159Z,92.94
2018-05-02T01:01:44.138Z,92.85
2018-05-02T01:02:44.118Z,93.13
2018-05-02T01:03:44.094Z,93.23
2018-05-02T01:04:44.088Z,93.04
2018-05-02T01:05:44.059Z,93.23
2018-05-02T01:06:44.042Z,93.23
2018-05-02T01:07:44.016Z,93.23
2018-05-02T01:08:44.000Z,93.13
2018-05-02T01:09:43.979Z,93.23
2018-05-02T01:10:43.964Z,93.60
2018-05-02T01:11:43.948Z,93.60
2018-05-02T01:12:43.919Z,93.51
2018-05-02T01:13:43.909Z,93.70
2018-05-02T01:14:43.898Z,93.23
2018-05-02T01:15:43.862Z,94.23
2018-05-02T01:16:43.849Z,94.08
2018-05-02T01:17:43.828Z,94.37
2018-05-02T01:18:43.809Z,93.79
2018-05-02T01:19:43.788Z,94.08
2018-05-02T01:20:43.769Z,94.18
2018-05-02T01:21:43.749Z,93.99
2018-05-02T01:22:43.729Z,93.99
2018-05-02T01:23:43.716Z,93.94
2018-05-02T01:24:43.691Z,93.65
2018-05-02T01:25:43.670Z,94.32
2018-05-02T01:26:43.648Z,95.17
2018-05-02T01:27:43.639Z,95.17
2018-05-02T01:28:43.611Z,95.84
2018-05-02T01:29:43.600Z,95.75
2018-05-02T01:30:43.579Z,95.75
2018-05-02T01:31:43.557Z,96.45
2018-05-02T01:32:43.541Z,97.12
2018-05-02T01:33:43.518Z,97.02
2018-05-02T01:34:43.514Z,97.12
2018-05-02T01:35:43.479Z,97.22
2018-05-02T01:36:43.456Z,97.69
2018-05-02T01:37:43.437Z,97.69
2018-05-02T01:38:43.422Z,98.64
2018-05-02T01:39:43.404Z,98.45
2018-05-02T01:40:43.380Z,98.07
2018-05-02T01:41:43.362Z,98.26
2018-05-02T01:42:43.336Z,98.45
2018-05-02T01:43:43.321Z,97.78
2018-05-02T01:44:43.296Z,97.69
2018-05-02T01:45:43.279Z,97.88
2018-05-02T01:46:43.257Z,97.78
2018-05-02T01:47:43.239Z,97.88
2018-05-02T01:48:43.219Z,97.88
2018-05-02T01:49:43.199Z,98.45
2018-05-02T01:50:43.185Z,98.26
2018-05-02T01:51:43.162Z,98.64
2018-05-02T01:52:43.143Z,98.16
2018-05-02T01:53:43.124Z,99.02
2018-05-02T01:54:43.103Z,98.45
2018-05-02T01:55:43.085Z,98.35
2018-05-02T01:56:43.069Z,98.54
2018-05-02T01:57:43.045Z,98.83
2018-05-02T01:58:43.021Z,98.73
2018-05-02T01:59:43.009Z,99.49
2018-05-02T02:00:42.982Z,98.83
2018-05-02T02:01:42.968Z,99.02
2018-05-02T02:02:42.945Z,98.50
2018-05-02T02:03:42.927Z,98.40
2018-05-02T02:04:42.903Z,98.02
2018-05-02T02:05:42.886Z,97.92
2018-05-02T02:06:42.863Z,98.50
2018-05-02T02:07:42.846Z,98.31
2018-05-02T02:08:42.824Z,98.21
2018-05-02T02:09:42.807Z,98.21
2018-05-02T02:10:42.785Z,98.40
2018-05-02T02:11:42.768Z,98.50
2018-05-02T02:12:42.743Z,98.12
2018-05-02T02:13:42.729Z,97.92
2018-05-02T02:14:42.706Z,98.02
2018-05-02T02:15:42.693Z,97.55
2018-05-02T02:16:42.667Z,97.92
2018-05-02T02:17:42.651Z,97.45
2018-05-02T02:18:42.626Z,98.12
2018-05-02T02:19:42.668Z,97.45
2018-05-02T02:20:42.590Z,97.83
2018-05-02T02:21:42.572Z,97.64
2018-05-02T02:22:42.550Z,97.55
2018-05-02T02:23:42.531Z,98.02
2018-05-02T02:24:42.510Z,97.27
2018-05-02T02:25:42.491Z,97.74
2018-05-02T02:26:42.469Z,97.83
2018-05-02T02:27:42.451Z,97.74
2018-05-02T02:28:42.431Z,97.27
2018-05-02T02:29:42.413Z,98.02
2018-05-02T02:30:42.392Z,97.17
2018-05-02T02:31:42.371Z,97.74
2018-05-02T02:32:42.352Z,97.64
2018-05-02T02:33:42.328Z,97.92
2018-05-02T02:34:42.312Z,97.64
2018-05-02T02:35:42.296Z,97.83
2018-05-02T02:36:42.272Z,97.74
2018-05-02T02:37:42.260Z,98.69
2018-05-02T02:38:42.245Z,98.50
2018-05-02T02:39:42.217Z,98.12
2018-05-02T02:40:42.201Z,98.31
2018-05-02T02:41:42.173Z,98.21
2018-05-02T02:42:42.158Z,98.21
2018-05-02T02:43:42.140Z,98.21
2018-05-02T02:44:42.117Z,98.12
2018-05-02T02:45:42.101Z,98.02
2018-05-02T02:46:42.076Z,98.50
2018-05-02T02:47:42.064Z,98.12
2018-05-02T02:48:42.040Z,98.02
2018-05-02T02:49:42.015Z,98.40
2018-05-02T02:50:41.999Z,98.40
2018-05-02T02:51:41.979Z,98.21
2018-05-02T02:52:41.961Z,98.79
2018-05-02T02:53:41.943Z,98.40
2018-05-02T02:54:41.920Z,98.50
2018-05-02T02:55:41.900Z,98.21
2018-05-02T02:56:41.881Z,98.21
2018-05-02T02:57:41.872Z,99.07
2018-05-02T02:58:41.835Z,98.97
2018-05-02T02:59:41.820Z,99.02
2018-05-02T03:00:41.799Z,99.21
2018-05-02T03:01:41.781Z,99.68
2018-05-02T03:02:41.762Z,99.40
2018-05-02T03:03:41.740Z,99.99
2018-05-02T03:04:41.721Z,99.87
2018-05-02T03:05:41.704Z,99.99
2018-05-02T03:06:41.681Z,99.99
2018-05-02T03:07:41.659Z,99.99
2018-05-02T03:08:41.640Z,99.99
2018-05-02T03:09:41.619Z,99.99
2018-05-02T03:10:41.601Z,99.99
2018-05-02T03:11:41.587Z,99.99
2018-05-02T03:12:41.561Z,99.99
2018-05-02T03:13:41.540Z,99.99
2018-05-02T03:14:41.521Z,99.99
2018-05-02T03:15:41.501Z,99.99
2018-05-02T03:16:41.480Z,99.99
2018-05-02T03:17:41.467Z,99.99
2018-05-02T03:18:41.439Z,99.99
2018-05-02T03:19:41.419Z,99.99
2018-05-02T03:20:41.405Z,99.99
2018-05-02T03:21:41.379Z,99.99
2018-05-02T03:22:41.364Z,99.99
2018-05-02T03:23:41.350Z,99.99
2018-05-02T03:24:41.320Z,99.99
2018-05-02T03:25:41.301Z,99.99
2018-05-02T03:26:41.288Z,99.99
2018-05-02T03:27:41.262Z,99.99
2018-05-02T03:28:41.241Z,99.97
2018-05-02T03:29:41.230Z,99.58
2018-05-02T03:30:41.201Z,99.97
2018-05-02T03:31:41.190Z,99.97
2018-05-02T03:32:41.169Z,99.99
2018-05-02T03:33:41.141Z,99.99
2018-05-02T03:34:41.127Z,99.99
2018-05-02T03:35:41.110Z,99.99
2018-05-02T03:36:41.090Z,99.99
2018-05-02T03:37:41.069Z,99.99
2018-05-02T03:38:41.044Z,99.99
2018-05-02T03:39:41.022Z,99.99
2018-05-02T03:40:41.012Z,99.99
2018-05-02T03:41:40.991Z,99.99
2018-05-02T03:42:40.969Z,99.99
2018-05-02T03:43:40.943Z,99.99
2018-05-02T03:44:40.921Z,99.99
2018-05-02T03:45:40.912Z,99.99
2018-05-02T03:46:40.890Z,99.99
2018-05-02T03:47:40.869Z,99.99
2018-05-02T03:48:40.855Z,99.99
2018-05-02T03:49:40.824Z,99.99
2018-05-02T03:50:40.810Z,99.99
2018-05-02T03:51:40.781Z,99.99
2018-05-02T03:52:40.760Z,99.99
2018-05-02T03:53:40.741Z,99.99
2018-05-02T03:54:40.731Z,99.99
2018-05-02T03:55:40.710Z,99.99
2018-05-02T03:56:40.693Z,99.99
2018-05-02T03:57:40.665Z,99.99
2018-05-02T03:58:40.651Z,99.99
2018-05-02T03:59:40.696Z,99.99
2018-05-02T04:00:40.604Z,99.99
2018-05-02T04:01:40.591Z,99.99
2018-05-02T04:02:40.572Z,99.99
2018-05-02T04:03:40.554Z,99.99
2018-05-02T04:04:40.519Z,99.99
2018-05-02T04:05:40.550Z,99.99
2018-05-02T04:06:40.482Z,99.99
2018-05-02T04:07:40.464Z,99.99
2018-05-02T04:08:40.507Z,99.99
2018-05-02T04:09:40.420Z,99.99
2018-05-02T04:10:40.399Z,99.99
2018-05-02T04:11:40.386Z,99.99
2018-05-02T04:12:40.359Z,99.99
2018-05-02T04:13:40.341Z,99.99
2018-05-02T04:14:40.320Z,99.99
2018-05-02T04:15:40.300Z,99.99
2018-05-02T04:16:40.279Z,99.99
2018-05-02T04:17:40.259Z,99.99
2018-05-02T04:18:40.259Z,99.99
2018-05-02T04:19:40.219Z,99.99
2018-05-02T04:20:40.205Z,99.99
2018-05-02T04:21:40.182Z,99.99
2018-05-02T04:22:40.159Z,99.99
2018-05-02T04:23:40.190Z,99.99
2018-05-02T04:24:40.129Z,99.99
2018-05-02T04:25:40.098Z,99.99
2018-05-02T04:26:40.081Z,99.99
2018-05-02T04:27:40.065Z,99.99
2018-05-02T04:28:40.040Z,99.99
2018-05-02T04:29:40.020Z,99.99
2018-05-02T04:30:40.007Z,99.99
2018-05-02T04:31:39.979Z,99.99
2018-05-02T04:32:39.956Z,99.99
2018-05-02T04:33:39.940Z,99.99
2018-05-02T04:34:39.920Z,99.99
2018-05-02T04:35:39.904Z,99.99
2018-05-02T04:36:39.881Z,99.99
2018-05-02T04:37:39.860Z,99.99
2018-05-02T04:38:39.841Z,99.99
2018-05-02T04:39:39.819Z,99.99
2018-05-02T04:40:39.804Z,99.99
2018-05-02T04:41:39.778Z,99.99
2018-05-02T04:42:39.758Z,99.99
2018-05-02T04:43:39.740Z,99.99
2018-05-02T04:44:39.718Z,99.99
2018-05-02T04:45:39.698Z,99.99
2018-05-02T04:46:39.681Z,99.99
2018-05-02T04:47:39.670Z,99.99
2018-05-02T04:48:39.638Z,99.99
2018-05-02T04:49:39.615Z,99.99
2018-05-02T04:50:39.596Z,99.99
2018-05-02T04:51:39.574Z,99.99
2018-05-02T04:52:39.645Z,99.99
2018-05-02T04:53:39.536Z,99.99
2018-05-02T04:54:39.521Z,99.99
2018-05-02T04:55:39.494Z,99.99
2018-05-02T04:56:39.484Z,99.99
2018-05-02T04:57:39.459Z,99.73
2018-05-02T04:58:39.439Z,99.99
2018-05-02T04:59:39.420Z,99.99
2018-05-02T05:00:39.398Z,99.49
2018-05-02T05:01:39.380Z,99.99
2018-05-02T05:02:39.356Z,99.99
2018-05-02T05:03:39.413Z,99.99
2018-05-02T05:04:39.329Z,99.99
2018-05-02T05:05:39.347Z,99.99
2018-05-02T05:06:39.283Z,99.99
2018-05-02T05:07:39.381Z,99.99
2018-05-02T05:08:39.240Z,99.99
2018-05-02T05:09:39.220Z,99.99
2018-05-02T05:10:39.197Z,99.99
2018-05-02T05:11:39.182Z,99.99
2018-05-02T05:12:39.160Z,99.99
2018-05-02T05:13:39.139Z,99.99
2018-05-02T05:14:39.119Z,99.99
2018-05-02T05:15:39.149Z,99.99
2018-05-02T05:16:39.080Z,99.99
2018-05-02T05:17:39.105Z,99.99
2018-05-02T05:18:39.038Z,99.99
2018-05-02T05:19:39.069Z,99.99
2018-05-02T05:20:38.997Z,99.99
2018-05-02T05:21:39.029Z,99.99
2018-05-02T05:22:38.959Z,99.99
2018-05-02T05:23:38.940Z,99.99
2018-05-02T05:24:38.925Z,99.99
2018-05-02T05:25:38.907Z,99.99
2018-05-02T05:26:38.883Z,99.99
2018-05-02T05:27:38.912Z,99.99
2018-05-02T05:28:38.848Z,99.99
2018-05-02T05:29:38.872Z,99.99
2018-05-02T05:30:38.801Z,99.99
2018-05-02T05:31:38.792Z,99.99
2018-05-02T05:32:38.765Z,99.99
2018-05-02T05:33:38.747Z,99.99
2018-05-02T05:34:38.742Z,99.99
2018-05-02T05:35:38.755Z,99.99
2018-05-02T05:36:38.684Z,99.99
2018-05-02T05:37:38.669Z,99.99
2018-05-02T05:38:38.640Z,99.99
2018-05-02T05:39:38.673Z,99.99
2018-05-02T05:40:38.595Z,99.99
2018-05-02T05:41:38.582Z,99.99
2018-05-02T05:42:38.560Z,99.99
2018-05-02T05:43:38.576Z,99.99
2018-05-02T05:44:38.519Z,99.99
2018-05-02T05:45:38.508Z,99.99
2018-05-02T05:46:38.478Z,99.99
2018-05-02T05:47:38.460Z,99.99
2018-05-02T05:48:38.441Z,99.64
2018-05-02T05:49:38.430Z,99.83
2018-05-02T05:50:38.399Z,99.99
2018-05-02T05:51:38.381Z,99.92
2018-05-02T05:52:38.360Z,99.69
2018-05-02T05:53:38.341Z,99.59
2018-05-02T05:54:38.322Z,99.30
2018-05-02T05:55:38.307Z,99.21
2018-05-02T05:56:38.310Z,99.30
2018-05-02T05:57:38.264Z,99.21
2018-05-02T05:58:38.241Z,98.26
2018-05-02T05:59:38.227Z,98.17
2018-05-02T06:00:38.203Z,98.26
2018-05-02T06:01:38.190Z,98.45
2018-05-02T06:02:38.163Z,97.64
2018-05-02T06:03:38.147Z,98.03
2018-05-02T06:04:38.130Z,97.74
2018-05-02T06:05:38.111Z,97.08
2018-05-02T06:06:38.160Z,97.17
2018-05-02T06:07:38.070Z,97.17
2018-05-02T06:08:38.048Z,97.17
2018-05-02T06:09:38.029Z,96.89
2018-05-02T06:10:38.008Z,96.69
2018-05-02T06:11:37.990Z,96.79
2018-05-02T06:12:38.055Z,96.03
2018-05-02T06:13:37.958Z,95.84
2018-05-02T06:14:37.935Z,95.36
2018-05-02T06:15:37.920Z,95.36
2018-05-02T06:16:37.896Z,94.98
2018-05-02T06:17:37.879Z,94.93
2018-05-02T06:18:37.856Z,95.03
2018-05-02T06:19:37.848Z,95.32
2018-05-02T06:20:37.818Z,94.65
2018-05-02T06:21:37.800Z,94.37
2018-05-02T06:22:37.781Z,92.65
2018-05-02T06:23:37.765Z,92.75
2018-05-02T06:24:37.746Z,92.51
2018-05-02T06:25:37.722Z,91.56
2018-05-02T06:26:37.715Z,91.08
2018-05-02T06:27:37.690Z,91.08
2018-05-02T06:28:37.670Z,90.89
2018-05-02T06:29:37.649Z,90.13
2018-05-02T06:30:37.631Z,89.56
2018-05-02T06:31:37.654Z,89.56
2018-05-02T06:32:37.595Z,89.08
2018-05-02T06:33:37.582Z,88.42
2018-05-02T06:34:37.562Z,88.42
2018-05-02T06:35:37.592Z,88.42
2018-05-02T06:36:37.520Z,88.27
2018-05-02T06:37:37.685Z,88.08
2018-05-02T06:38:37.478Z,87.89
2018-05-02T06:39:37.469Z,87.60
2018-05-02T06:40:37.441Z,87.41
2018-05-02T06:41:37.430Z,86.65
2018-05-02T06:42:37.412Z,87.98
2018-05-02T06:43:37.448Z,86.36
2018-05-02T06:44:37.372Z,86.08
2018-05-02T06:45:37.454Z,85.89
2018-05-02T06:46:37.332Z,86.46
2018-05-02T06:47:37.416Z,86.55
2018-05-02T06:48:37.300Z,86.69
2018-05-02T06:49:37.381Z,86.32
2018-05-02T06:50:37.273Z,85.64
2018-05-02T06:51:37.281Z,85.27
2018-05-02T06:52:37.233Z,84.79
2018-05-02T06:53:37.309Z,84.60
2018-05-02T06:54:37.216Z,84.88
2018-05-02T06:55:37.171Z,85.41
2018-05-02T06:56:37.148Z,85.02
2018-05-02T06:57:37.192Z,84.36
2018-05-02T06:58:37.114Z,84.26
2018-05-02T06:59:37.105Z,82.64
2018-05-02T07:00:37.081Z,81.97
2018-05-02T07:01:37.064Z,82.17
2018-05-02T07:02:37.052Z,81.40
2018-05-02T07:03:37.026Z,81.02
2018-05-02T07:04:37.006Z,80.49
2018-05-02T07:05:36.993Z,80.49
2018-05-02T07:06:36.980Z,81.73
2018-05-02T07:07:36.957Z,79.63
2018-05-02T07:08:36.942Z,80.68
2018-05-02T07:09:36.933Z,80.01
2018-05-02T07:10:36.911Z,78.58
2018-05-02T07:11:36.888Z,79.35
2018-05-02T07:12:36.875Z,79.06
2018-05-02T07:13:37.032Z,78.49
2018-05-02T07:14:36.836Z,77.25
2018-05-02T07:15:36.820Z,77.09
2018-05-02T07:16:36.807Z,76.71
2018-05-02T07:17:36.786Z,77.19
2018-05-02T07:18:36.767Z,76.71
2018-05-02T07:19:36.752Z,76.33
2018-05-02T07:20:36.736Z,75.28
2018-05-02T07:21:36.719Z,74.23
2018-05-02T07:22:36.701Z,75.28
2018-05-02T07:23:36.683Z,75.47
2018-05-02T07:24:36.673Z,75.66
2018-05-02T07:25:36.656Z,72.61
2018-05-02T07:26:36.635Z,72.61
2018-05-02T07:27:36.621Z,73.18
2018-05-02T07:28:36.612Z,73.94
2018-05-02T07:29:36.602Z,74.04
2018-05-02T07:30:36.585Z,74.37
2018-05-02T07:31:36.567Z,74.65
2018-05-02T07:32:36.640Z,72.83
2018-05-02T07:33:36.541Z,71.82
2018-05-02T07:34:36.529Z,69.72
2018-05-02T07:35:36.521Z,68.48
2018-05-02T07:36:36.505Z,67.81
2018-05-02T07:37:36.507Z,67.71
2018-05-02T07:38:36.494Z,68.19
2018-05-02T07:39:36.484Z,66.85
2018-05-02T07:40:36.464Z,64.85
2018-05-02T07:41:36.471Z,65.93
2018-05-02T07:42:36.449Z,66.44
2018-05-02T07:43:36.443Z,64.28
2018-05-02T07:44:36.431Z,61.44
2018-05-02T07:45:36.421Z,59.94
2018-05-02T07:46:36.413Z,58.31
2018-05-02T07:47:36.413Z,57.54
2018-05-02T07:48:36.485Z,57.38
2018-05-02T07:49:36.392Z,55.82
2018-05-02T07:50:36.461Z,55.65
2018-05-02T07:51:36.385Z,54.63
2018-05-02T07:52:36.381Z,53.55
2018-05-02T07:53:36.381Z,53.74
2018-05-02T07:54:36.369Z,53.28
2018-05-02T07:55:36.365Z,52.64
2018-05-02T07:56:36.381Z,50.27
2018-05-02T07:57:36.354Z,49.52
2018-05-02T07:58:36.353Z,49.10
2018-05-02T07:59:36.349Z,50.53
2018-05-02T08:00:36.352Z,49.02
2018-05-02T08:01:36.347Z,47.82
2018-05-02T08:02:36.333Z,46.96
2018-05-02T08:03:36.339Z,45.73
2018-05-02T08:04:36.376Z,44.41
2018-05-02T08:05:36.321Z,43.71
2018-05-02T08:06:36.329Z,45.68
2018-05-02T08:07:36.323Z,46.28
2018-05-02T08:08:36.322Z,45.56
2018-05-02T08:09:36.328Z,43.93
2018-05-02T08:10:36.313Z,43.71
2018-05-02T08:11:36.314Z,44.62
2018-05-02T08:12:36.307Z,43.84
2018-05-02T08:13:36.314Z,44.26
2018-05-02T08:14:36.311Z,42.46
2018-05-02T08:15:36.311Z,41.41
2018-05-02T08:16:36.305Z,40.07
2018-05-02T08:17:36.307Z,39.89
2018-05-02T08:18:36.306Z,39.99
2018-05-02T08:19:36.302Z,38.95
2018-05-02T08:20:36.299Z,38.08
2018-05-02T08:21:36.302Z,37.71
2018-05-02T08:22:36.302Z,37.62
2018-05-02T08:23:36.352Z,37.29
2018-05-02T08:24:36.308Z,39.28
2018-05-02T08:25:36.307Z,42.00
2018-05-02T08:26:36.318Z,41.56
2018-05-02T08:27:36.505Z,40.41
2018-05-02T08:28:36.306Z,41.02
2018-05-02T08:29:36.411Z,43.87
2018-05-02T08:30:36.308Z,43.07
2018-05-02T08:31:36.398Z,42.12
2018-05-02T08:32:36.293Z,40.36
2018-05-02T08:33:36.348Z,39.37
2018-05-02T08:34:36.344Z,39.49
2018-05-02T08:35:36.296Z,38.66
2018-05-02T08:36:36.297Z,39.93
2018-05-02T08:37:36.283Z,40.70
2018-05-02T08:38:36.285Z,42.68
2018-05-02T08:39:36.314Z,42.32
2018-05-02T08:40:36.281Z,42.16
2018-05-02T08:41:36.284Z,40.72
2018-05-02T08:42:36.290Z,40.74
2018-05-02T08:43:36.290Z,40.45
2018-05-02T08:44:36.269Z,39.53
2018-05-02T08:45:36.273Z,38.83
2018-05-02T08:46:36.273Z,37.62
2018-05-02T08:47:36.270Z,39.24
2018-05-02T08:48:36.273Z,39.09
2018-05-02T08:49:36.273Z,41.55
2018-05-02T08:50:36.273Z,44.06
2018-05-02T08:51:36.264Z,43.45
2018-05-02T08:52:36.328Z,44.84
2018-05-02T08:53:36.267Z,46.14
2018-05-02T08:54:36.265Z,49.33
2018-05-02T08:55:36.252Z,52.47
2018-05-02T08:56:36.358Z,52.66
2018-05-02T08:57:36.241Z,52.85
2018-05-02T08:58:36.356Z,52.04
2018-05-02T08:59:36.235Z,48.44
2018-05-02T09:00:36.285Z,47.97
2018-05-02T09:01:36.224Z,49.43
2018-05-02T09:02:36.221Z,51.44
2018-05-02T09:03:36.208Z,51.44
2018-05-02T09:04:36.206Z,51.54
2018-05-02T09:05:36.196Z,52.11
2018-05-02T09:06:36.245Z,52.23
2018-05-02T09:07:36.178Z,50.60
2018-05-02T09:08:36.171Z,51.63
2018-05-02T09:09:36.175Z,51.14
2018-05-02T09:10:36.153Z,49.10
2018-05-02T09:11:36.142Z,50.79
2018-05-02T09:12:36.132Z,51.34
2018-05-02T09:13:36.127Z,52.11
2018-05-02T09:14:36.114Z,52.30
2018-05-02T09:15:36.127Z,53.04
2018-05-02T09:16:36.102Z,53.04
2018-05-02T09:17:36.084Z,52.85
2018-05-02T09:18:36.079Z,51.37
2018-05-02T09:19:36.065Z,49.41
2018-05-02T09:20:36.057Z,46.84
2018-05-02T09:21:36.050Z,45.71
2018-05-02T09:22:36.041Z,44.75
2018-05-02T09:23:36.032Z,44.38
2018-05-02T09:24:36.020Z,44.12
2018-05-02T09:25:36.011Z,42.64
2018-05-02T09:26:36.002Z,44.24
2018-05-02T09:27:35.991Z,45.28
2018-05-02T09:28:35.989Z,45.86
2018-05-02T09:29:35.982Z,45.64
2018-05-02T09:30:35.961Z,43.84
2018-05-02T09:31:35.946Z,44.24
2018-05-02T09:32:35.936Z,45.47
2018-05-02T09:33:35.929Z,45.93
2018-05-02T09:34:35.927Z,46.43
2018-05-02T09:35:35.938Z,45.83
2018-05-02T09:36:35.898Z,47.49
2018-05-02T09:37:35.898Z,46.26
2018-05-02T09:38:35.880Z,46.34
2018-05-02T09:39:35.871Z,47.85
2018-05-02T09:40:35.861Z,47.49
2018-05-02T09:41:35.858Z,47.37
2018-05-02T09:42:35.838Z,47.22
2018-05-02T09:43:35.832Z,45.35
2018-05-02T09:44:35.821Z,43.74
2018-05-02T09:45:35.809Z,42.85
2018-05-02T09:46:35.805Z,43.45
2018-05-02T09:47:35.794Z,42.87
2018-05-02T09:48:35.774Z,42.37
2018-05-02T09:49:35.763Z,42.76
2018-05-02T09:50:35.764Z,43.52
2018-05-02T09:51:35.757Z,43.48
2018-05-02T09:52:35.735Z,44.82
2018-05-02T09:53:35.723Z,43.84
2018-05-02T09:54:35.720Z,42.70
2018-05-02T09:55:35.707Z,41.70
2018-05-02T09:56:35.690Z,42.66
2018-05-02T09:57:35.680Z,41.79
2018-05-02T09:58:35.670Z,41.62
2018-05-02T09:59:35.662Z,40.51
2018-05-02T10:00:35.651Z,40.01
2018-05-02T10:01:35.643Z,40.60
2018-05-02T10:02:35.634Z,43.94
2018-05-02T10:03:35.620Z,43.98
2018-05-02T10:04:35.729Z,42.85
2018-05-02T10:05:35.607Z,42.94
2018-05-02T10:06:35.600Z,43.77
2018-05-02T10:07:35.579Z,43.79
2018-05-02T10:08:35.572Z,43.98
2018-05-02T10:09:35.562Z,42.97
2018-05-02T10:10:35.545Z,42.30
2018-05-02T10:11:35.537Z,40.78
2018-05-02T10:12:35.561Z,40.28
2018-05-02T10:13:35.521Z,40.88
2018-05-02T10:14:35.510Z,41.08
2018-05-02T10:15:35.494Z,41.14
2018-05-02T10:16:35.481Z,41.26
2018-05-02T10:17:35.472Z,40.78
2018-05-02T10:18:35.512Z,40.76
2018-05-02T10:19:35.462Z,40.20
2018-05-02T10:20:35.439Z,40.83
2018-05-02T10:21:35.431Z,41.49
2018-05-02T10:22:35.420Z,41.22
2018-05-02T10:23:35.411Z,41.05
2018-05-02T10:24:35.399Z,40.20
2018-05-02T10:25:35.385Z,40.01
2018-05-02T10:26:35.380Z,39.45
2018-05-02T10:27:35.366Z,38.29
2018-05-02T10:28:35.358Z,39.43
2018-05-02T10:29:35.357Z,41.00
2018-05-02T10:30:35.340Z,42.58
2018-05-02T10:31:35.333Z,42.00
2018-05-02T10:32:35.331Z,42.03
2018-05-02T10:33:35.308Z,41.47
2018-05-02T10:34:35.302Z,40.78
2018-05-02T10:35:35.291Z,41.06
2018-05-02T10:36:35.274Z,40.70
2018-05-02T10:37:35.265Z,40.45
2018-05-02T10:38:35.262Z,38.22
2018-05-02T10:39:35.247Z,37.34
2018-05-02T10:40:35.231Z,38.66
2018-05-02T10:41:35.225Z,39.64
2018-05-02T10:42:35.213Z,39.31
2018-05-02T10:43:35.201Z,40.11
2018-05-02T10:44:35.191Z,40.12
2018-05-02T10:45:35.182Z,39.93
2018-05-02T10:46:35.223Z,39.01
2018-05-02T10:47:35.160Z,37.72
2018-05-02T10:48:35.151Z,38.01
2018-05-02T10:49:35.147Z,38.70
2018-05-02T10:50:35.189Z,38.87
2018-05-02T10:51:35.123Z,39.43
2018-05-02T10:52:35.110Z,38.66
2018-05-02T10:53:35.103Z,37.81
2018-05-02T10:54:35.090Z,36.47
2018-05-02T10:55:35.081Z,36.47
2018-05-02T10:56:35.070Z,35.79
2018-05-02T10:57:35.065Z,36.27
2018-05-02T10:58:35.051Z,36.64
2018-05-02T10:59:35.044Z,37.34
2018-05-02T11:00:35.031Z,36.56
2018-05-02T11:01:35.041Z,36.93
2018-05-02T11:02:35.011Z,36.37
2018-05-02T11:03:35.000Z,36.85
2018-05-02T11:04:34.991Z,36.56
2018-05-02T11:05:34.983Z,37.04
2018-05-02T11:06:34.981Z,38.01
2018-05-02T11:07:34.963Z,37.26
2018-05-02T11:08:34.955Z,36.43
2018-05-02T11:09:34.940Z,38.91
2018-05-02T11:10:34.931Z,39.58
2018-05-02T11:11:34.926Z,39.20
2018-05-02T11:12:34.911Z,39.28
2018-05-02T11:13:34.903Z,39.68
2018-05-02T11:14:34.891Z,38.56
2018-05-02T11:15:34.884Z,37.79
2018-05-02T11:16:34.872Z,37.41
2018-05-02T11:17:34.862Z,36.95
2018-05-02T11:18:34.853Z,36.95
2018-05-02T11:19:34.839Z,36.45
2018-05-02T11:20:34.828Z,36.27
2018-05-02T11:21:34.820Z,35.99
2018-05-02T11:22:34.809Z,36.47
2018-05-02T11:23:34.801Z,36.68
2018-05-02T11:24:34.795Z,36.21
2018-05-02T11:25:34.792Z,35.64
2018-05-02T11:26:34.776Z,35.91
2018-05-02T11:27:34.761Z,35.42
2018-05-02T11:28:34.747Z,34.67
2018-05-02T11:29:34.749Z,34.37
2018-05-02T11:30:34.725Z,33.97
2018-05-02T11:31:34.725Z,34.56
2018-05-02T11:32:34.708Z,34.67
2018-05-02T11:33:34.863Z,34.21
2018-05-02T11:34:34.693Z,33.53
2018-05-02T11:35:34.777Z,34.09
2018-05-02T11:36:34.671Z,34.56
2018-05-02T11:37:34.661Z,35.04
2018-05-02T11:38:34.648Z,34.75
2018-05-02T11:39:34.642Z,34.75
2018-05-02T11:40:34.705Z,35.24
2018-05-02T11:41:34.621Z,34.58
2018-05-02T11:42:34.607Z,34.56
2018-05-02T11:43:34.597Z,35.44
2018-05-02T11:44:34.592Z,34.86
2018-05-02T11:45:34.589Z,34.50
2018-05-02T11:46:34.581Z,34.29
2018-05-02T11:47:34.563Z,34.40
2018-05-02T11:48:34.552Z,34.42
2018-05-02T11:49:34.537Z,33.17
2018-05-02T11:50:34.531Z,32.89
2018-05-02T11:51:34.522Z,32.49
2018-05-02T11:52:34.510Z,32.89
2018-05-02T11:53:34.501Z,32.78
2018-05-02T11:54:34.491Z,32.59
2018-05-02T11:55:34.482Z,32.39
2018-05-02T11:56:34.483Z,34.00
2018-05-02T11:57:34.467Z,35.08
2018-05-02T11:58:34.461Z,34.77
2018-05-02T11:59:34.451Z,35.16
2018-05-02T12:00:34.435Z,34.69
2018-05-02T12:01:34.430Z,34.22
2018-05-02T12:02:34.465Z,33.45
2018-05-02T12:03:34.491Z,33.34
2018-05-02T12:04:34.404Z,34.61
2018-05-02T12:05:34.391Z,37.18
2018-05-02T12:06:34.381Z,37.66
2018-05-02T12:07:34.374Z,38.54
2018-05-02T12:08:34.359Z,37.97
2018-05-02T12:09:34.356Z,38.47
2018-05-02T12:10:34.429Z,37.34
2018-05-02T12:11:34.329Z,37.35
2018-05-02T12:12:34.321Z,37.66
2018-05-02T12:13:34.319Z,36.43
2018-05-02T12:14:34.304Z,35.65
2018-05-02T12:15:34.293Z,34.59
2018-05-02T12:16:34.282Z,34.69
2018-05-02T12:17:34.279Z,35.14
2018-05-02T12:18:34.268Z,35.91
2018-05-02T12:19:34.265Z,35.42
2018-05-02T12:20:34.248Z,35.83
2018-05-02T12:21:34.236Z,34.69
2018-05-02T12:22:34.231Z,34.30
2018-05-02T12:23:34.218Z,34.13
2018-05-02T12:24:34.212Z,33.57
2018-05-02T12:25:34.220Z,33.45
2018-05-02T12:26:34.187Z,33.55
2018-05-02T12:27:34.181Z,34.22
2018-05-02T12:28:34.175Z,34.13
2018-05-02T12:29:34.161Z,34.61
2018-05-02T12:30:34.153Z,33.55
2018-05-02T12:31:34.169Z,34.13
2018-05-02T12:32:34.134Z,34.05
2018-05-02T12:33:34.132Z,34.24
2018-05-02T12:34:34.124Z,33.87
2018-05-02T12:35:34.113Z,33.07
2018-05-02T12:36:34.102Z,33.76
2018-05-02T12:37:34.096Z,33.18
2018-05-02T12:38:34.085Z,33.05
2018-05-02T12:39:34.075Z,34.03
2018-05-02T12:40:34.065Z,34.22
2018-05-02T12:41:34.057Z,33.95
2018-05-02T12:42:34.043Z,33.37
2018-05-02T12:43:34.038Z,33.37
2018-05-02T12:44:34.024Z,33.18
2018-05-02T12:45:34.025Z,33.37
2018-05-02T12:46:34.081Z,32.99
2018-05-02T12:47:34.001Z,33.28
2018-05-02T12:48:34.019Z,34.01
2018-05-02T12:49:33.983Z,34.78
2018-05-02T12:50:33.985Z,35.08
2018-05-02T12:51:33.973Z,34.77
2018-05-02T12:52:33.957Z,35.91